Aeroporto internacional de VIRACOPOS

SBKP · São Paulo, 巴西

罗盘
风向 的 风向 130° Viracopos International Airport 15/33
风: 14 kt, 4 beaufort

14 kt

1 kt
改变
0 ft 1.000 2.000 3.000 4.000 5.000
CAVOK
METAR SBKP 262300Z 13014KT CAVOK 25/21 Q1017

METAR Viracopos International Airport - SBKP/VCP

Viracopos International Airport是,巴西中的大型机场。 该机场位于纬度-23,00740和经度-47,13450。 该机场有一条跑道: 15/33. 本场的ICAO机场代码为SBKP。 该机场的IATA代码为VCP。 机场在Brasilia FIR中。

该航空气象观测是针对Viracopos International Airport在2024年2月26日 20:00, 当地时间进行的。

机场观察

风向为130°,速度为14 kt。

天气为CAVOK。这意味着在5.000 ft或MSA(最低安全高度)以下(以较高者为准)以下没有云。这也意味着没有观测到积雨云或高耸的积云,可见度为10 km 或者更多或更高。此外,不会有雾,降雨或其他重要天气。

温度和风寒是25 °C。 露点为21 °C,相对湿度为79%。 海平面上的气压为1017 hPa (QNH)。

白天

今天,太阳从06:02升起,在18:40降落。 这适用于Viracopos International Airport,世界夏令时可能有所不同。 当地时间与世界标准时间之间的时差为-3 小时。 当前,没有夏令时有效。

公司介绍

这个机场上的公司有Swissport OCC 和 Swissport。

体会

到Vliegles.nl去找飞行课程,跳伞和其他飞行体验。 浏览页面,了解Viracopos International Airport附近所有可用的活动。 你也可以使用搜索功能来寻找你所在地附近的特定飞行课程、跳伞或其他飞行体验。

跑道

Id 标题 侧风 逆风 侧风 %
15/33 127°-307° 14 kt 5 %

逆风成分最大的方向会被突出显示,并用于横风计算。 这并不一定意味着这个方向在使用。

温度 & 天气

温度 25 °C
露点 21 °C
相对湿度 79%
Kp-index 1 (0-9)

白天

日出
06:02 (9:47)
中午
12:21
日落
18:40

小工具

你想在你的网站上有一个关于Viracopos International Airport的当前航空天气(METAR)的小部件吗?

显示HTML代码
?>